createdAt,value
2019-04-28T00:00:21.427Z,71.68
2019-04-28T00:01:20.991Z,71.87
2019-04-28T00:02:20.579Z,72.44
2019-04-28T00:03:20.756Z,72.06
2019-04-28T00:04:19.252Z,71.87
2019-04-28T00:05:20.713Z,72.16
2019-04-28T00:06:20.929Z,71.77
2019-04-28T00:07:18.951Z,71.68
2019-04-28T00:08:20.352Z,71.68
2019-04-28T00:09:18.747Z,71.01
2019-04-28T00:10:18.647Z,70.92
2019-04-28T00:11:18.608Z,70.82
2019-04-28T00:12:18.447Z,70.82
2019-04-28T00:13:18.351Z,70.53
2019-04-28T00:14:18.242Z,70.53
2019-04-28T00:15:18.144Z,70.82
2019-04-28T00:16:18.041Z,70.34
2019-04-28T00:17:17.947Z,70.15
2019-04-28T00:18:17.840Z,70.00
2019-04-28T00:19:17.739Z,70.06
2019-04-28T00:20:17.637Z,69.48
2019-04-28T00:21:17.535Z,69.29
2019-04-28T00:22:17.438Z,69.48
2019-04-28T00:23:17.334Z,69.52
2019-04-28T00:24:17.232Z,69.48
2019-04-28T00:25:17.132Z,69.62
2019-04-28T00:26:17.032Z,69.48
2019-04-28T00:27:16.930Z,69.58
2019-04-28T00:28:16.827Z,69.81
2019-04-28T00:29:16.729Z,69.20
2019-04-28T00:30:16.627Z,69.62
2019-04-28T00:31:16.593Z,69.23
2019-04-28T00:32:16.424Z,68.57
2019-04-28T00:33:16.323Z,68.95
2019-04-28T00:34:16.227Z,68.57
2019-04-28T00:35:16.128Z,68.18
2019-04-28T00:36:16.023Z,68.09
2019-04-28T00:37:15.923Z,68.95
2019-04-28T00:38:15.824Z,69.14
2019-04-28T00:39:15.721Z,69.14
2019-04-28T00:40:15.620Z,68.85
2019-04-28T00:41:15.518Z,67.99
2019-04-28T00:42:15.418Z,68.28
2019-04-28T00:43:15.318Z,68.09
2019-04-28T00:44:15.217Z,67.90
2019-04-28T00:45:15.117Z,68.18
2019-04-28T00:46:15.015Z,67.71
2019-04-28T00:47:14.913Z,67.90
2019-04-28T00:48:14.815Z,67.52
2019-04-28T00:49:14.712Z,67.71
2019-04-28T00:50:14.612Z,67.80
2019-04-28T00:51:14.560Z,67.14
2019-04-28T00:52:14.499Z,67.42
2019-04-28T00:53:14.310Z,67.33
2019-04-28T00:54:14.209Z,67.80
2019-04-28T00:55:14.107Z,68.09
2019-04-28T00:56:14.007Z,67.80
2019-04-28T00:57:13.908Z,68.66
2019-04-28T00:58:13.804Z,67.99
2019-04-28T00:59:13.703Z,68.18
2019-04-28T01:00:13.602Z,68.18
2019-04-28T01:01:13.501Z,68.18
2019-04-28T01:02:13.401Z,68.15
2019-04-28T01:03:13.302Z,67.99
2019-04-28T01:04:13.200Z,67.39
2019-04-28T01:05:13.097Z,68.05
2019-04-28T01:06:14.059Z,67.96
2019-04-28T01:07:12.898Z,67.77
2019-04-28T01:08:12.800Z,67.96
2019-04-28T01:09:12.696Z,67.90
2019-04-28T01:10:12.594Z,67.20
2019-04-28T01:11:12.534Z,67.48
2019-04-28T01:12:12.415Z,67.39
2019-04-28T01:13:12.290Z,67.58
2019-04-28T01:14:12.189Z,67.77
2019-04-28T01:15:12.091Z,67.29
2019-04-28T01:16:11.991Z,68.63
2019-04-28T01:17:11.886Z,68.44
2019-04-28T01:18:11.786Z,68.44
2019-04-28T01:19:11.686Z,68.24
2019-04-28T01:20:11.584Z,68.24
2019-04-28T01:21:11.482Z,68.15
2019-04-28T01:22:11.382Z,67.86
2019-04-28T01:23:11.281Z,68.15
2019-04-28T01:24:11.798Z,68.82
2019-04-28T01:25:11.080Z,68.63
2019-04-28T01:26:10.977Z,69.29
2019-04-28T01:27:10.878Z,69.58
2019-04-28T01:28:10.779Z,69.39
2019-04-28T01:29:10.676Z,69.58
2019-04-28T01:30:11.309Z,68.91
2019-04-28T01:31:10.512Z,68.24
2019-04-28T01:32:10.509Z,67.86
2019-04-28T01:33:10.271Z,67.58
2019-04-28T01:34:10.388Z,67.10
2019-04-28T01:35:10.071Z,67.48
2019-04-28T01:36:10.387Z,66.82
2019-04-28T01:37:09.867Z,66.72
2019-04-28T01:38:09.911Z,66.91
2019-04-28T01:39:10.092Z,67.20
2019-04-28T01:40:09.613Z,66.11
2019-04-28T01:41:09.874Z,66.15
2019-04-28T01:42:10.662Z,66.11
2019-04-28T01:43:09.724Z,66.02
2019-04-28T01:44:10.256Z,65.64
2019-04-28T01:45:10.565Z,66.21
2019-04-28T01:46:10.157Z,66.02
2019-04-28T01:47:10.496Z,65.45
2019-04-28T01:48:10.115Z,65.26
2019-04-28T01:49:09.636Z,65.64
2019-04-28T01:50:10.235Z,65.64
2019-04-28T01:51:09.509Z,66.21
2019-04-28T01:52:10.257Z,66.31
2019-04-28T01:53:09.679Z,66.21
2019-04-28T01:54:09.798Z,65.16
2019-04-28T01:55:09.966Z,65.36
2019-04-28T01:56:07.944Z,65.16
2019-04-28T01:57:09.903Z,65.26
2019-04-28T01:58:09.478Z,65.07
2019-04-28T01:59:07.641Z,65.45
2019-04-28T02:00:21.385Z,65.26
2019-04-28T02:01:07.437Z,64.69
2019-04-28T02:02:07.337Z,64.69
2019-04-28T02:03:07.236Z,65.83
2019-04-28T02:04:07.131Z,66.21
2019-04-28T02:05:07.030Z,66.40
2019-04-28T02:06:06.930Z,67.07
2019-04-28T02:07:06.827Z,68.02
2019-04-28T02:08:06.727Z,68.02
2019-04-28T02:09:06.627Z,67.93
2019-04-28T02:10:06.522Z,69.74
2019-04-28T02:11:06.468Z,69.07
2019-04-28T02:12:06.400Z,69.64
2019-04-28T02:13:06.219Z,70.21
2019-04-28T02:14:06.116Z,69.64
2019-04-28T02:15:06.019Z,69.83
2019-04-28T02:16:05.919Z,70.40
2019-04-28T02:17:05.815Z,71.17
2019-04-28T02:18:05.713Z,70.97
2019-04-28T02:19:05.612Z,70.78
2019-04-28T02:20:05.512Z,71.07
2019-04-28T02:21:05.409Z,72.50
2019-04-28T02:22:05.306Z,72.21
2019-04-28T02:23:05.208Z,73.03
2019-04-28T02:24:05.101Z,72.85
2019-04-28T02:25:04.999Z,73.22
2019-04-28T02:26:04.904Z,73.03
2019-04-28T02:27:04.799Z,72.75
2019-04-28T02:28:04.702Z,73.22
2019-04-28T02:29:04.596Z,73.70
2019-04-28T02:30:04.502Z,73.51
2019-04-28T02:31:04.441Z,72.75
2019-04-28T02:32:04.377Z,72.37
2019-04-28T02:33:04.193Z,72.56
2019-04-28T02:34:04.090Z,72.17
2019-04-28T02:35:03.991Z,71.89
2019-04-28T02:36:03.889Z,71.70
2019-04-28T02:37:03.785Z,71.98
2019-04-28T02:38:03.698Z,72.85
2019-04-28T02:39:03.581Z,72.65
2019-04-28T02:40:03.854Z,72.46
2019-04-28T02:41:03.377Z,72.37
2019-04-28T02:42:03.275Z,72.85
2019-04-28T02:43:03.177Z,72.65
2019-04-28T02:44:03.075Z,72.85
2019-04-28T02:45:02.969Z,72.65
2019-04-28T02:46:02.868Z,72.56
2019-04-28T02:47:02.773Z,72.46
2019-04-28T02:48:02.667Z,71.80
2019-04-28T02:49:02.564Z,73.32
2019-04-28T02:50:02.461Z,72.75
2019-04-28T02:51:02.409Z,72.65
2019-04-28T02:52:03.146Z,72.17
2019-04-28T02:53:02.263Z,71.80
2019-04-28T02:54:02.056Z,71.42
2019-04-28T02:55:03.310Z,71.61
2019-04-28T02:56:01.850Z,71.22
2019-04-28T02:57:01.759Z,70.94
2019-04-28T02:58:01.801Z,71.80
2019-04-28T02:59:01.547Z,71.80
2019-04-28T03:00:01.448Z,71.70
2019-04-28T03:01:12.548Z,71.98
2019-04-28T03:02:01.240Z,71.22
2019-04-28T03:03:01.553Z,71.80
2019-04-28T03:04:01.037Z,71.61
2019-04-28T03:05:00.936Z,71.61
2019-04-28T03:06:01.535Z,71.98
2019-04-28T03:07:01.347Z,72.37
2019-04-28T03:08:01.023Z,72.75
2019-04-28T03:09:00.527Z,72.65
2019-04-28T03:10:03.197Z,72.56
2019-04-28T03:11:01.114Z,72.56
2019-04-28T03:12:01.506Z,72.27
2019-04-28T03:13:00.976Z,71.70
2019-04-28T03:14:00.921Z,71.89
2019-04-28T03:15:00.660Z,71.22
2019-04-28T03:16:01.578Z,70.84
2019-04-28T03:17:00.841Z,70.56
2019-04-28T03:18:01.693Z,69.89
2019-04-28T03:19:01.165Z,69.23
2019-04-28T03:20:01.122Z,68.75
2019-04-28T03:21:01.643Z,67.80
2019-04-28T03:22:01.308Z,65.80
2019-04-28T03:23:00.980Z,63.67
2019-04-28T03:24:01.109Z,62.08
2019-04-28T03:25:00.912Z,61.80
2019-04-28T03:26:01.222Z,61.29
2019-04-28T03:27:00.602Z,60.24
2019-04-28T03:28:00.589Z,59.48
2019-04-28T03:29:00.805Z,58.72
2019-04-28T03:30:00.817Z,57.20
2019-04-28T03:31:03.251Z,56.75
2019-04-28T03:32:18.302Z,56.44
2019-04-28T03:33:04.872Z,55.58
2019-04-28T03:33:57.977Z,55.42
2019-04-28T03:35:02.274Z,55.58
2019-04-28T03:35:57.790Z,55.20
2019-04-28T03:37:00.218Z,55.29
2019-04-28T03:37:57.572Z,55.58
2019-04-28T03:38:57.467Z,55.39
2019-04-28T03:39:57.361Z,55.96
2019-04-28T03:40:57.263Z,55.87
2019-04-28T03:41:57.159Z,55.77
2019-04-28T03:42:59.374Z,55.87
2019-04-28T03:43:56.957Z,55.68
2019-04-28T03:44:56.854Z,55.87
2019-04-28T03:45:56.751Z,56.05
2019-04-28T03:46:56.652Z,56.15
2019-04-28T03:47:56.550Z,56.15
2019-04-28T03:48:56.447Z,56.15
2019-04-28T03:49:56.362Z,56.15
2019-04-28T03:50:56.280Z,55.77
2019-04-28T03:51:56.141Z,56.05
2019-04-28T03:52:56.038Z,55.96
2019-04-28T03:53:55.936Z,55.96
2019-04-28T03:54:55.831Z,56.15
2019-04-28T03:55:55.729Z,55.96
2019-04-28T03:56:55.625Z,56.44
2019-04-28T03:57:55.524Z,56.44
2019-04-28T03:58:55.442Z,56.24
2019-04-28T03:59:55.318Z,56.53
2019-04-28T04:00:55.217Z,57.01
2019-04-28T04:01:59.385Z,56.53
2019-04-28T04:02:55.012Z,57.01
2019-04-28T04:03:54.909Z,57.20
2019-04-28T04:04:54.808Z,57.01
2019-04-28T04:05:54.705Z,57.01
2019-04-28T04:06:54.602Z,57.10
2019-04-28T04:07:54.498Z,57.20
2019-04-28T04:08:54.397Z,56.92
2019-04-28T04:09:54.326Z,56.92
2019-04-28T04:10:54.254Z,56.92
2019-04-28T04:11:54.087Z,57.01
2019-04-28T04:12:53.989Z,57.01
2019-04-28T04:13:53.898Z,57.01
2019-04-28T04:14:53.783Z,57.20
2019-04-28T04:15:54.404Z,57.29
2019-04-28T04:16:53.581Z,57.20
2019-04-28T04:17:53.474Z,56.92
2019-04-28T04:18:53.891Z,57.20
2019-04-28T04:19:53.271Z,56.92
2019-04-28T04:20:53.165Z,56.34
2019-04-28T04:21:53.130Z,56.53
2019-04-28T04:22:52.964Z,56.53
2019-04-28T04:23:52.858Z,56.72
2019-04-28T04:24:52.759Z,56.53
2019-04-28T04:25:52.653Z,56.63
2019-04-28T04:26:52.555Z,56.72
2019-04-28T04:27:52.451Z,56.34
2019-04-28T04:28:52.348Z,56.34
2019-04-28T04:29:52.293Z,56.44
2019-04-28T04:30:52.160Z,56.63
2019-04-28T04:31:52.040Z,56.63
2019-04-28T04:32:51.937Z,56.63
2019-04-28T04:33:51.834Z,57.01
2019-04-28T04:34:51.732Z,56.82
2019-04-28T04:35:51.932Z,56.72
2019-04-28T04:36:51.527Z,56.72
2019-04-28T04:37:51.422Z,56.92
2019-04-28T04:38:51.745Z,56.72
2019-04-28T04:39:51.457Z,56.92
2019-04-28T04:40:51.374Z,56.92
2019-04-28T04:41:51.022Z,57.20
2019-04-28T04:42:50.913Z,57.39
2019-04-28T04:43:51.511Z,57.29
2019-04-28T04:44:50.715Z,56.72
2019-04-28T04:45:50.604Z,56.82
2019-04-28T04:46:50.850Z,57.29
2019-04-28T04:47:50.474Z,56.72
2019-04-28T04:48:50.855Z,56.63
2019-04-28T04:49:50.558Z,56.72
2019-04-28T04:50:51.089Z,56.72
2019-04-28T04:51:50.848Z,56.82
2019-04-28T04:52:50.276Z,56.53
2019-04-28T04:53:51.073Z,56.72
2019-04-28T04:54:51.173Z,56.92
2019-04-28T04:55:50.504Z,56.63
2019-04-28T04:56:50.091Z,56.53
2019-04-28T04:57:50.707Z,56.92
2019-04-28T04:58:50.441Z,57.01
2019-04-28T04:59:49.993Z,56.34
2019-04-28T05:00:51.079Z,56.63
2019-04-28T05:01:50.274Z,56.05
2019-04-28T05:02:52.897Z,56.05
2019-04-28T05:03:49.785Z,55.96
2019-04-28T05:04:50.539Z,56.15
2019-04-28T05:05:50.142Z,56.24
2019-04-28T05:06:49.670Z,56.15
2019-04-28T05:07:48.347Z,56.05
2019-04-28T05:08:49.505Z,55.96
2019-04-28T05:09:49.580Z,56.34
2019-04-28T05:10:48.032Z,56.34
2019-04-28T05:11:49.786Z,56.05
2019-04-28T05:12:47.825Z,55.96
2019-04-28T05:13:47.723Z,56.34
2019-04-28T05:14:49.378Z,56.34
2019-04-28T05:15:47.518Z,56.24
2019-04-28T05:16:47.421Z,56.15
2019-04-28T05:17:47.312Z,56.05
2019-04-28T05:18:47.210Z,56.53
2019-04-28T05:19:47.104Z,55.87
2019-04-28T05:20:47.009Z,56.34
2019-04-28T05:21:46.902Z,56.34
2019-04-28T05:22:46.801Z,56.53
2019-04-28T05:23:46.699Z,56.24
2019-04-28T05:24:50.377Z,55.77
2019-04-28T05:25:46.492Z,55.68
2019-04-28T05:26:47.549Z,55.96
2019-04-28T05:27:46.284Z,56.34
2019-04-28T05:28:51.423Z,55.96
2019-04-28T05:29:46.121Z,55.77
2019-04-28T05:30:45.979Z,55.77
2019-04-28T05:31:45.875Z,55.68
2019-04-28T05:32:53.605Z,55.87
2019-04-28T05:33:45.672Z,55.77
2019-04-28T05:34:46.758Z,55.96
2019-04-28T05:35:45.467Z,55.96
2019-04-28T05:36:45.361Z,55.90
2019-04-28T05:37:45.267Z,56.09
2019-04-28T05:38:45.159Z,55.90
2019-04-28T05:39:45.055Z,55.80
2019-04-28T05:40:44.958Z,55.87
2019-04-28T05:41:44.852Z,55.77
2019-04-28T05:42:44.747Z,55.96
2019-04-28T05:43:44.647Z,55.90
2019-04-28T05:44:44.544Z,55.68
2019-04-28T05:45:44.444Z,55.70
2019-04-28T05:46:44.361Z,55.87
2019-04-28T05:47:44.234Z,55.51
2019-04-28T05:48:44.194Z,55.70
2019-04-28T05:49:44.031Z,56.09
2019-04-28T05:50:43.929Z,55.77
2019-04-28T05:51:43.826Z,55.68
2019-04-28T05:52:43.722Z,55.58
2019-04-28T05:53:43.623Z,56.09
2019-04-28T05:54:43.518Z,55.32
2019-04-28T05:55:43.414Z,56.15
2019-04-28T05:56:43.313Z,55.68
2019-04-28T05:57:43.209Z,55.29
2019-04-28T05:58:43.108Z,55.96
2019-04-28T05:59:43.005Z,55.58
2019-04-28T06:00:42.903Z,55.49
2019-04-28T06:01:42.801Z,55.68
2019-04-28T06:02:54.098Z,55.39
2019-04-28T06:03:42.596Z,55.39
2019-04-28T06:04:42.494Z,55.49
2019-04-28T06:05:42.389Z,55.49
2019-04-28T06:06:42.287Z,55.39
2019-04-28T06:07:42.183Z,55.39
2019-04-28T06:08:42.107Z,55.01
2019-04-28T06:09:41.978Z,55.22
2019-04-28T06:10:41.882Z,55.49
2019-04-28T06:11:41.781Z,55.01
2019-04-28T06:12:41.672Z,55.49
2019-04-28T06:13:41.569Z,55.39
2019-04-28T06:14:41.466Z,55.29
2019-04-28T06:15:41.362Z,55.32
2019-04-28T06:16:41.261Z,55.42
2019-04-28T06:17:41.162Z,55.13
2019-04-28T06:18:42.214Z,55.49
2019-04-28T06:19:40.953Z,55.10
2019-04-28T06:20:40.850Z,54.91
2019-04-28T06:21:40.748Z,55.20
2019-04-28T06:22:40.652Z,55.49
2019-04-28T06:23:40.544Z,55.51
2019-04-28T06:24:40.439Z,55.32
2019-04-28T06:25:40.338Z,55.32
2019-04-28T06:26:40.237Z,55.51
2019-04-28T06:27:40.150Z,55.51
2019-04-28T06:28:40.093Z,55.22
2019-04-28T06:29:39.930Z,55.13
2019-04-28T06:30:39.827Z,55.51
2019-04-28T06:31:39.728Z,54.66
2019-04-28T06:32:39.624Z,54.85
2019-04-28T06:33:39.522Z,54.66
2019-04-28T06:34:39.422Z,54.47
2019-04-28T06:35:39.317Z,54.88
2019-04-28T06:36:39.214Z,54.68
2019-04-28T06:37:39.112Z,55.54
2019-04-28T06:38:39.011Z,54.68
2019-04-28T06:39:38.913Z,54.68
2019-04-28T06:40:38.804Z,55.35
2019-04-28T06:41:38.704Z,55.35
2019-04-28T06:42:38.602Z,55.83
2019-04-28T06:43:38.500Z,55.92
2019-04-28T06:44:38.398Z,55.92
2019-04-28T06:45:38.294Z,56.02
2019-04-28T06:46:38.198Z,55.83
2019-04-28T06:47:38.134Z,55.83
2019-04-28T06:48:38.060Z,56.21
2019-04-28T06:49:37.892Z,56.68
2019-04-28T06:50:37.788Z,56.21
2019-04-28T06:51:37.686Z,55.83
2019-04-28T06:52:37.584Z,55.16
2019-04-28T06:53:37.482Z,56.11
2019-04-28T06:54:37.383Z,55.44
2019-04-28T06:55:37.280Z,56.21
2019-04-28T06:56:37.180Z,56.43
2019-04-28T06:57:37.080Z,56.90
2019-04-28T06:58:36.976Z,56.52
2019-04-28T06:59:36.880Z,57.48
2019-04-28T07:00:36.777Z,56.14
2019-04-28T07:01:36.671Z,55.95
2019-04-28T07:02:36.573Z,57.76
2019-04-28T07:03:36.469Z,58.21
2019-04-28T07:04:36.367Z,57.09
2019-04-28T07:05:36.267Z,57.16
2019-04-28T07:06:36.167Z,57.64
2019-04-28T07:07:36.095Z,57.45
2019-04-28T07:08:36.013Z,57.54
2019-04-28T07:09:35.862Z,57.92
2019-04-28T07:10:35.764Z,58.11
2019-04-28T07:11:35.661Z,57.45
2019-04-28T07:12:35.557Z,57.07
2019-04-28T07:13:35.459Z,56.49
2019-04-28T07:14:35.357Z,56.68
2019-04-28T07:15:35.255Z,56.02
2019-04-28T07:16:35.155Z,56.46
2019-04-28T07:17:35.053Z,56.09
2019-04-28T07:18:34.952Z,56.09
2019-04-28T07:19:34.852Z,56.09
2019-04-28T07:20:34.751Z,55.90
2019-04-28T07:21:34.647Z,56.09
2019-04-28T07:22:34.549Z,56.46
2019-04-28T07:23:34.445Z,55.32
2019-04-28T07:24:34.343Z,55.61
2019-04-28T07:25:34.243Z,55.32
2019-04-28T07:26:34.150Z,55.13
2019-04-28T07:27:34.077Z,55.32
2019-04-28T07:28:34.000Z,54.85
2019-04-28T07:29:33.835Z,55.51
2019-04-28T07:30:33.733Z,55.99
2019-04-28T07:31:33.632Z,55.51
2019-04-28T07:32:33.531Z,55.13
2019-04-28T07:33:36.166Z,55.35
2019-04-28T07:34:33.330Z,56.27
2019-04-28T07:35:33.225Z,56.18
2019-04-28T07:36:33.126Z,55.99
2019-04-28T07:37:33.022Z,56.75
2019-04-28T07:38:32.922Z,56.85
2019-04-28T07:39:32.819Z,56.27
2019-04-28T07:40:32.718Z,56.09
2019-04-28T07:41:32.622Z,55.80
2019-04-28T07:42:32.517Z,55.13
2019-04-28T07:43:32.414Z,55.32
2019-04-28T07:44:32.317Z,55.42
2019-04-28T07:45:32.211Z,56.18
2019-04-28T07:46:32.109Z,55.61
2019-04-28T07:47:32.051Z,55.51
2019-04-28T07:48:31.986Z,54.85
2019-04-28T07:49:31.804Z,56.18
2019-04-28T07:50:31.703Z,55.32
2019-04-28T07:51:31.601Z,55.51
2019-04-28T07:52:31.499Z,55.42
2019-04-28T07:53:31.401Z,56.18
2019-04-28T07:54:31.296Z,55.99
2019-04-28T07:55:31.195Z,55.99
2019-04-28T07:56:31.094Z,56.09
2019-04-28T07:57:30.991Z,55.90
2019-04-28T07:58:30.888Z,55.99
2019-04-28T07:59:30.787Z,56.09
2019-04-28T08:00:30.694Z,55.51
2019-04-28T08:01:30.583Z,55.44
2019-04-28T08:02:30.483Z,55.16
2019-04-28T08:03:30.382Z,56.11
2019-04-28T08:04:30.286Z,56.11
2019-04-28T08:05:30.179Z,56.21
2019-04-28T08:06:30.077Z,56.87
2019-04-28T08:07:30.046Z,56.30
2019-04-28T08:08:29.878Z,56.11
2019-04-28T08:09:29.770Z,55.07
2019-04-28T08:10:29.672Z,56.40
2019-04-28T08:11:29.571Z,57.07
2019-04-28T08:12:29.466Z,57.26
2019-04-28T08:13:29.364Z,56.78
2019-04-28T08:14:29.261Z,56.11
2019-04-28T08:15:29.162Z,56.59
2019-04-28T08:16:29.059Z,58.11
2019-04-28T08:17:28.959Z,59.06
2019-04-28T08:18:31.496Z,58.11
2019-04-28T08:19:28.754Z,59.45
2019-04-28T08:20:28.655Z,60.88
2019-04-28T08:21:28.553Z,59.64
2019-04-28T08:22:28.452Z,59.35
2019-04-28T08:23:28.350Z,59.92
2019-04-28T08:24:28.249Z,61.07
2019-04-28T08:25:28.149Z,60.30
2019-04-28T08:26:28.047Z,63.07
2019-04-28T08:27:27.997Z,63.07
2019-04-28T08:28:27.854Z,62.88
2019-04-28T08:29:27.743Z,60.69
2019-04-28T08:30:27.644Z,60.21
2019-04-28T08:31:27.541Z,59.16
2019-04-28T08:32:27.442Z,59.92
2019-04-28T08:33:27.339Z,58.50
2019-04-28T08:34:27.238Z,59.26
2019-04-28T08:35:27.137Z,58.11
2019-04-28T08:36:27.035Z,58.21
2019-04-28T08:37:26.937Z,59.64
2019-04-28T08:38:26.837Z,59.19
2019-04-28T08:39:26.902Z,59.67
2019-04-28T08:40:26.633Z,62.05
2019-04-28T08:41:26.532Z,61.48
2019-04-28T08:42:26.438Z,63.86
2019-04-28T08:43:26.329Z,64.34
2019-04-28T08:44:26.233Z,65.77
2019-04-28T08:45:26.129Z,64.62
2019-04-28T08:46:26.045Z,66.82
2019-04-28T08:47:25.977Z,66.24
2019-04-28T08:48:25.909Z,66.05
2019-04-28T08:49:25.730Z,63.76
2019-04-28T08:50:25.628Z,63.60
2019-04-28T08:51:25.526Z,65.80
2019-04-28T08:52:25.426Z,66.56
2019-04-28T08:53:25.324Z,71.87
2019-04-28T08:54:25.226Z,70.53
2019-04-28T08:55:25.123Z,68.18
2019-04-28T08:56:25.024Z,67.71
2019-04-28T08:57:24.923Z,65.52
2019-04-28T08:58:24.826Z,64.47
2019-04-28T08:59:24.725Z,68.38
2019-04-28T09:00:24.677Z,71.52
2019-04-28T09:01:24.523Z,71.62
2019-04-28T09:02:24.422Z,70.86
2019-04-28T09:03:24.321Z,69.52
2019-04-28T09:04:24.219Z,70.47
2019-04-28T09:05:24.124Z,71.23
2019-04-28T09:06:24.022Z,72.19
2019-04-28T09:07:23.963Z,75.81
2019-04-28T09:08:23.861Z,77.82
2019-04-28T09:09:23.720Z,76.39
2019-04-28T09:10:23.621Z,78.96
2019-04-28T09:11:23.523Z,75.62
2019-04-28T09:12:23.420Z,77.44
2019-04-28T09:13:23.325Z,76.48
2019-04-28T09:14:23.220Z,77.53
2019-04-28T09:15:23.120Z,75.66
2019-04-28T09:16:23.023Z,86.35
2019-04-28T09:17:22.921Z,81.96
2019-04-28T09:18:22.845Z,84.10
2019-04-28T09:19:22.722Z,84.92
2019-04-28T09:20:22.622Z,86.68
2019-04-28T09:21:22.523Z,84.48
2019-04-28T09:22:22.426Z,81.71
2019-04-28T09:23:22.325Z,83.38
2019-04-28T09:24:22.222Z,90.45
2019-04-28T09:25:22.126Z,90.16
2019-04-28T09:26:22.023Z,89.34
2019-04-28T09:27:21.931Z,86.33
2019-04-28T09:28:21.868Z,88.53
2019-04-28T09:29:21.732Z,88.29
2019-04-28T09:30:21.633Z,88.01
2019-04-28T09:31:21.532Z,87.20
2019-04-28T09:32:21.435Z,89.11
2019-04-28T09:33:21.336Z,86.58
2019-04-28T09:34:28.110Z,87.63
2019-04-28T09:35:21.138Z,84.53
2019-04-28T09:36:21.044Z,81.81
2019-04-28T09:37:20.947Z,85.91
2019-04-28T09:38:20.845Z,83.62
2019-04-28T09:39:23.295Z,86.30
2019-04-28T09:40:20.650Z,85.10
2019-04-28T09:41:20.552Z,87.92
2019-04-28T09:42:20.453Z,88.40
2019-04-28T09:43:20.356Z,85.19
2019-04-28T09:44:20.256Z,85.96
2019-04-28T09:45:20.160Z,90.16
2019-04-28T09:46:20.062Z,88.73
2019-04-28T09:47:20.021Z,90.25
2019-04-28T09:48:19.906Z,85.38
2019-04-28T09:49:19.850Z,87.82
2019-04-28T09:50:19.669Z,87.06
2019-04-28T09:51:19.572Z,86.30
2019-04-28T09:52:19.472Z,84.10
2019-04-28T09:53:19.375Z,87.25
2019-04-28T09:54:19.279Z,88.20
2019-04-28T09:55:19.186Z,88.40
2019-04-28T09:56:19.085Z,86.87
2019-04-28T09:57:18.984Z,86.20
2019-04-28T09:58:18.889Z,88.49
2019-04-28T09:59:18.787Z,84.86
2019-04-28T10:00:18.688Z,84.96
2019-04-28T10:01:18.593Z,89.35
2019-04-28T10:02:18.491Z,87.44
2019-04-28T10:03:18.394Z,91.26
2019-04-28T10:04:18.297Z,88.16
2019-04-28T10:05:18.197Z,85.82
2019-04-28T10:06:18.104Z,86.92
2019-04-28T10:07:18.002Z,86.54
2019-04-28T10:08:17.903Z,85.49
2019-04-28T10:09:17.891Z,85.21
2019-04-28T10:10:17.707Z,83.83
2019-04-28T10:11:29.704Z,85.73
2019-04-28T10:12:27.012Z,85.25
2019-04-28T10:13:17.410Z,83.35
2019-04-28T10:14:17.312Z,84.30
2019-04-28T10:15:17.213Z,83.92
2019-04-28T10:16:17.110Z,85.35
2019-04-28T10:17:17.015Z,84.78
2019-04-28T10:18:16.916Z,83.64
2019-04-28T10:19:16.821Z,86.78
2019-04-28T10:20:16.719Z,84.53
2019-04-28T10:21:16.618Z,85.21
2019-04-28T10:22:16.524Z,85.82
2019-04-28T10:23:16.420Z,90.97
2019-04-28T10:24:16.322Z,87.82
2019-04-28T10:25:16.222Z,85.34
2019-04-28T10:26:16.123Z,91.36
2019-04-28T10:27:16.020Z,86.43
2019-04-28T10:28:15.923Z,88.63
2019-04-28T10:29:15.865Z,90.54
2019-04-28T10:30:15.781Z,87.20
2019-04-28T10:31:15.627Z,89.25
2019-04-28T10:32:15.527Z,90.39
2019-04-28T10:33:15.430Z,90.34
2019-04-28T10:34:15.331Z,90.44
2019-04-28T10:35:15.233Z,89.67
2019-04-28T10:36:15.133Z,90.44
2019-04-28T10:37:15.037Z,89.39
2019-04-28T10:38:14.937Z,90.92
2019-04-28T10:39:14.837Z,90.25
2019-04-28T10:40:14.742Z,90.73
2019-04-28T10:41:14.643Z,92.07
2019-04-28T10:42:14.547Z,89.62
2019-04-28T10:43:14.450Z,91.53
2019-04-28T10:44:14.349Z,91.25
2019-04-28T10:45:14.254Z,89.62
2019-04-28T10:46:14.151Z,89.72
2019-04-28T10:47:14.059Z,91.63
2019-04-28T10:48:13.962Z,90.48
2019-04-28T10:49:13.863Z,89.53
2019-04-28T10:50:13.836Z,89.62
2019-04-28T10:51:13.673Z,90.77
2019-04-28T10:52:13.573Z,89.34
2019-04-28T10:53:13.480Z,91.59
2019-04-28T10:54:13.378Z,89.29
2019-04-28T10:55:13.281Z,88.43
2019-04-28T10:56:13.187Z,89.77
2019-04-28T10:57:13.092Z,91.20
2019-04-28T10:58:12.990Z,90.11
2019-04-28T10:59:12.892Z,89.34
2019-04-28T11:00:12.796Z,90.53
2019-04-28T11:01:12.700Z,89.96
2019-04-28T11:02:12.603Z,89.01
2019-04-28T11:03:12.507Z,92.07
2019-04-28T11:04:12.410Z,89.10
2019-04-28T11:05:12.313Z,88.91
2019-04-28T11:06:12.678Z,89.96
2019-04-28T11:07:12.116Z,89.87
2019-04-28T11:08:12.020Z,89.25
2019-04-28T11:09:11.928Z,88.87
2019-04-28T11:10:11.829Z,89.25
2019-04-28T11:11:11.803Z,88.48
2019-04-28T11:12:11.631Z,88.68
2019-04-28T11:13:11.536Z,89.92
2019-04-28T11:14:14.134Z,89.39
2019-04-28T11:15:11.341Z,88.92
2019-04-28T11:16:11.246Z,89.20
2019-04-28T11:17:11.149Z,88.44
2019-04-28T11:18:11.050Z,89.59
2019-04-28T11:19:10.953Z,89.11
2019-04-28T11:20:10.859Z,90.45
2019-04-28T11:21:10.757Z,89.49
2019-04-28T11:22:10.662Z,89.39
2019-04-28T11:23:10.562Z,89.87
2019-04-28T11:24:10.466Z,90.16
2019-04-28T11:25:10.368Z,89.25
2019-04-28T11:26:10.271Z,89.73
2019-04-28T11:27:10.171Z,88.10
2019-04-28T11:28:10.075Z,90.78
2019-04-28T11:29:09.978Z,90.25
2019-04-28T11:30:09.880Z,89.34
2019-04-28T11:31:09.781Z,90.25
2019-04-28T11:32:09.707Z,90.25
2019-04-28T11:33:09.586Z,89.73
2019-04-28T11:34:09.491Z,89.44
2019-04-28T11:35:20.939Z,90.78
2019-04-28T11:36:09.298Z,90.30
2019-04-28T11:37:09.196Z,88.77
2019-04-28T11:38:09.097Z,89.44
2019-04-28T11:39:08.998Z,90.20
2019-04-28T11:40:08.900Z,89.20
2019-04-28T11:41:11.421Z,89.30
2019-04-28T11:42:08.707Z,88.73
2019-04-28T11:43:08.605Z,89.63
2019-04-28T11:44:08.509Z,89.82
2019-04-28T11:45:08.411Z,89.73
2019-04-28T11:46:08.313Z,90.20
2019-04-28T11:47:08.212Z,88.48
2019-04-28T11:48:08.116Z,89.77
2019-04-28T11:49:08.021Z,90.73
2019-04-28T11:50:07.920Z,89.29
2019-04-28T11:51:07.823Z,90.68
2019-04-28T11:52:07.749Z,89.53
2019-04-28T11:53:07.671Z,89.87
2019-04-28T11:54:07.525Z,88.44
2019-04-28T11:55:07.427Z,88.92
2019-04-28T11:56:07.328Z,89.87
2019-04-28T11:57:07.231Z,89.39
2019-04-28T11:58:07.134Z,89.59
2019-04-28T11:59:07.036Z,89.01
2019-04-28T12:00:06.937Z,88.63
2019-04-28T12:01:06.840Z,90.16
2019-04-28T12:02:06.741Z,89.20
2019-04-28T12:03:06.641Z,91.21
2019-04-28T12:04:06.541Z,89.59
2019-04-28T12:05:06.446Z,89.11
2019-04-28T12:06:06.348Z,91.50
2019-04-28T12:07:06.247Z,89.97
2019-04-28T12:08:06.149Z,89.97
2019-04-28T12:09:06.050Z,89.01
2019-04-28T12:10:06.578Z,89.49
2019-04-28T12:11:05.855Z,91.64
2019-04-28T12:12:08.472Z,91.35
2019-04-28T12:13:05.724Z,90.59
2019-04-28T12:14:05.556Z,90.06
2019-04-28T12:15:05.456Z,90.30
2019-04-28T12:16:05.356Z,90.73
2019-04-28T12:17:05.260Z,90.16
2019-04-28T12:18:05.164Z,91.44
2019-04-28T12:19:05.069Z,90.39
2019-04-28T12:20:04.967Z,89.91
2019-04-28T12:21:04.873Z,91.77
2019-04-28T12:22:04.774Z,89.81
2019-04-28T12:23:04.670Z,90.39
2019-04-28T12:24:04.573Z,90.86
2019-04-28T12:25:04.475Z,89.72
2019-04-28T12:26:04.376Z,90.19
2019-04-28T12:27:04.279Z,90.63
2019-04-28T12:28:04.182Z,90.72
2019-04-28T12:29:04.083Z,89.91
2019-04-28T12:30:03.986Z,91.16
2019-04-28T12:31:03.892Z,92.02
2019-04-28T12:32:03.792Z,91.16
2019-04-28T12:33:03.711Z,91.78
2019-04-28T12:34:03.639Z,91.78
2019-04-28T12:35:03.501Z,92.49
2019-04-28T12:36:03.403Z,93.02
2019-04-28T12:37:03.304Z,93.50
2019-04-28T12:38:03.208Z,91.97
2019-04-28T12:39:03.111Z,93.12
2019-04-28T12:40:03.013Z,91.78
2019-04-28T12:41:02.918Z,94.17
2019-04-28T12:42:02.821Z,93.60
2019-04-28T12:43:02.722Z,93.40
2019-04-28T12:44:02.625Z,93.31
2019-04-28T12:45:02.535Z,92.45
2019-04-28T12:46:02.429Z,93.98
2019-04-28T12:47:02.337Z,94.74
2019-04-28T12:48:02.239Z,93.79
2019-04-28T12:49:02.136Z,95.22
2019-04-28T12:50:02.044Z,95.56
2019-04-28T12:51:01.941Z,94.89